Portada
METAR-TAF:

METAR-TAF

Aeroports :

Lamoni Municipal Airport

Lamoni, Iowa, Estats Units d'Amèrica

latitud: 40-37-50N, longitud: 093-54-03W, altitud: 344 m

Observació

L'informe es va fer fa 36 minuts, a les 02:53 UTC
Vent 10 kt del Sud/Sud-Est amb ràfegues de 18 kt
Temperatura 28°C
Humitat 70%
Pressió 1008 hPa
Visibilitat: 16.1 km
Cel clar

METAR: KLWD 180253Z AUTO 16010G18KT 10SM CLR 28/22 A2978 RMK AO2 SLP071 T02780217 53007

Hora: 22:29 (03:29 UTC)


TAF: manca

Observacions i pronòstics meteorològics de més de 4000 aeroports (METAR i TAF).

Les estacions disponibles són els punts grocs i vermells al mapa.

Posi el ratolí al punt desitjat per veure el nom de l'estació.

Feu clic per veure les observacions i els pronòstics meteorològics.

Per canviar el mapa: feu clic els botons verds amb una creu de color negre per apropar; al botó verd amb un guió per allunyar la imatge; o en les fletxes verdes per a mapes adjacents.


METAR-TAF: